Time;durP1;ratioP1;P1;durP2;ratioP2;P2;SDS_P1;SDS_P2;PMS_P1;PMS_P2;Temp;Humidity;BMP_temperature;BMP_pressure;BME280_temperature;BME280_humidity;BME280_pressure;Samples;Min_cycle;Max_cycle;Signal;HPM_P1;HPM_P2
2021/10/09 00:01:41;;;;;;;2.90;2.43;;;;;;;;;;5067376;28;20229;-65
2021/10/09 00:04:24;;;;;;;3.10;2.80;;;;;;;;;;5040705;28;20722;-65
2021/10/09 00:06:56;;;;;;;3.00;2.70;;;;;;;;;;5067037;28;20205;-65
2021/10/09 00:09:27;;;;;;;2.80;2.60;;;;;;;;;;5054666;28;20520;-64
2021/10/09 00:12:00;;;;;;;4.10;2.87;;;;;;;;;;5067597;28;20312;-64
2021/10/09 00:14:37;;;;;;;3.40;2.80;;;;;;;;;;5066779;28;20259;-64
2021/10/09 00:17:13;;;;;;;3.20;2.90;;;;;;;;;;5060408;28;20284;-64
2021/10/09 00:19:47;;;;;;;3.40;3.10;;;;;;;;;;5056221;28;20216;-64
2021/10/09 00:22:18;;;;;;;2.67;2.47;;;;;;;;;;5064515;28;20649;-64
2021/10/09 00:24:51;;;;;;;3.63;2.90;;;;;;;;;;5061551;28;20813;-65
2021/10/09 00:27:25;;;;;;;2.93;2.73;;;;;;;;;;5068281;28;20197;-65
2021/10/09 00:29:58;;;;;;;3.20;2.90;;;;;;;;;;5069186;28;20204;-64
2021/10/09 00:32:29;;;;;;;3.30;2.93;;;;;;;;;;5049180;28;20620;-64
2021/10/09 00:34:59;;;;;;;3.20;2.90;;;;;;;;;;5068024;28;20205;-64
2021/10/09 00:37:31;;;;;;;3.33;3.00;;;;;;;;;;5052766;28;20903;-64
2021/10/09 00:40:02;;;;;;;3.10;2.80;;;;;;;;;;5065018;28;20203;-64
2021/10/09 00:42:32;;;;;;;3.13;2.83;;;;;;;;;;5052863;28;20229;-64
2021/10/09 00:45:06;;;;;;;3.03;2.83;;;;;;;;;;5062138;28;20315;-64
2021/10/09 00:47:40;;;;;;;4.10;3.10;;;;;;;;;;5067674;28;20256;-64
2021/10/09 00:50:10;;;;;;;2.97;2.77;;;;;;;;;;5067764;28;20198;-64
2021/10/09 00:52:41;;;;;;;3.23;2.93;;;;;;;;;;5049783;28;20210;-64
2021/10/09 00:55:08;;;;;;;3.67;3.37;;;;;;;;;;5044013;28;20205;-64
2021/10/09 00:57:40;;;;;;;3.30;3.00;;;;;;;;;;5054577;28;20236;-64
2021/10/09 01:00:15;;;;;;;3.80;2.60;;;;;;;;;;5081054;28;20201;-64
2021/10/09 01:02:43;;;;;;;3.37;3.07;;;;;;;;;;5092275;28;20728;-63
2021/10/09 01:05:14;;;;;;;3.57;2.90;;;;;;;;;;5094988;28;20212;-64
2021/10/09 01:07:45;;;;;;;4.20;3.53;;;;;;;;;;5070548;28;20216;-63
2021/10/09 01:10:16;;;;;;;3.33;3.03;;;;;;;;;;5085035;28;20257;-64
2021/10/09 01:12:47;;;;;;;3.30;3.00;;;;;;;;;;5084544;28;20215;-64
2021/10/09 01:15:24;;;;;;;3.27;2.90;;;;;;;;;;5086050;28;20576;-64
2021/10/09 01:17:56;;;;;;;3.53;3.23;;;;;;;;;;5086540;28;20196;-63
2021/10/09 01:20:26;;;;;;;3.40;3.10;;;;;;;;;;5067019;28;20252;-63
2021/10/09 01:23:03;;;;;;;4.03;3.63;;;;;;;;;;5085787;28;20258;-64
2021/10/09 01:25:33;;;;;;;3.67;3.37;;;;;;;;;;5092369;28;20228;-64
2021/10/09 01:28:02;;;;;;;3.87;3.47;;;;;;;;;;5088908;28;20207;-64
2021/10/09 01:30:37;;;;;;;3.57;3.27;;;;;;;;;;5087649;28;20271;-64
2021/10/09 01:33:08;;;;;;;3.50;3.20;;;;;;;;;;5083526;28;20205;-64
2021/10/09 01:35:56;;;;;;;4.07;3.53;;;;;;;;;;5086540;28;20280;-64
2021/10/09 01:38:27;;;;;;;3.80;3.50;;;;;;;;;;5091452;28;20622;-64
2021/10/09 01:40:58;;;;;;;4.10;3.63;;;;;;;;;;5087632;28;20559;-64
2021/10/09 01:43:30;;;;;;;4.20;3.80;;;;;;;;;;5090156;28;20205;-63
2021/10/09 01:46:01;;;;;;;4.10;3.80;;;;;;;;;;5084770;28;20194;-64
2021/10/09 01:48:40;;;;;;;3.67;3.37;;;;;;;;;;5074557;28;20204;-63
2021/10/09 01:51:22;;;;;;;3.77;3.47;;;;;;;;;;5090171;28;20250;-63
2021/10/09 01:53:53;;;;;;;4.07;3.77;;;;;;;;;;5091330;28;20544;-63
2021/10/09 01:56:26;;;;;;;3.90;3.60;;;;;;;;;;5101077;27;20323;-64
2021/10/09 01:58:55;;;;;;;4.07;3.67;;;;;;;;;;5077724;28;20314;-64
2021/10/09 02:01:27;;;;;;;3.83;3.53;;;;;;;;;;5073764;28;20220;-63
2021/10/09 02:03:57;;;;;;;3.87;3.57;;;;;;;;;;5102561;27;20824;-64
2021/10/09 02:06:27;;;;;;;4.00;3.70;;;;;;;;;;5084778;28;20510;-64
2021/10/09 02:08:56;;;;;;;4.60;4.20;;;;;;;;;;5089167;28;20209;-65
2021/10/09 02:11:35;;;;;;;4.57;4.17;;;;;;;;;;5064639;28;20201;-63
2021/10/09 02:14:17;;;;;;;3.90;3.60;;;;;;;;;;5089148;28;20519;-65
2021/10/09 02:28:21;;;;;;;4.80;4.40;;;;;;;;;;5067200;28;20662;-65
2021/10/09 02:30:53;;;;;;;4.10;3.80;;;;;;;;;;5087169;28;20196;-64
2021/10/09 02:33:24;;;;;;;4.50;4.10;;;;;;;;;;5089062;28;20201;-63
2021/10/09 02:35:57;;;;;;;4.43;4.03;;;;;;;;;;5079991;28;20631;-63
2021/10/09 02:38:27;;;;;;;4.97;4.57;;;;;;;;;;5086919;28;20201;-63
2021/10/09 02:40:59;;;;;;;4.20;3.83;;;;;;;;;;5087131;28;20230;-63
2021/10/09 02:43:29;;;;;;;4.83;4.43;;;;;;;;;;5087749;28;20252;-64
2021/10/09 02:46:03;;;;;;;4.93;4.43;;;;;;;;;;5091588;28;20205;-63
2021/10/09 02:48:33;;;;;;;4.60;4.17;;;;;;;;;;5071376;28;20209;-63
2021/10/09 02:51:04;;;;;;;5.27;4.80;;;;;;;;;;5089987;28;20209;-63
2021/10/09 02:53:35;;;;;;;4.73;4.33;;;;;;;;;;5070991;28;20194;-64
2021/10/09 02:56:06;;;;;;;5.40;4.90;;;;;;;;;;5086947;28;20239;-63
2021/10/09 02:58:35;;;;;;;4.97;4.57;;;;;;;;;;5058766;28;20237;-63
2021/10/09 03:01:03;;;;;;;4.77;4.37;;;;;;;;;;5067905;28;20205;-63
2021/10/09 03:03:31;;;;;;;4.93;4.53;;;;;;;;;;5070215;28;20220;-63
2021/10/09 03:06:02;;;;;;;5.40;4.90;;;;;;;;;;5064935;28;20197;-63
2021/10/09 03:08:32;;;;;;;5.13;4.73;;;;;;;;;;5064808;28;20224;-63
2021/10/09 03:11:08;;;;;;;4.83;4.40;;;;;;;;;;5061875;28;20232;-62
2021/10/09 03:13:37;;;;;;;5.20;4.80;;;;;;;;;;5068006;28;20193;-63
2021/10/09 03:16:08;;;;;;;4.93;4.53;;;;;;;;;;5069646;28;20209;-63
2021/10/09 03:18:38;;;;;;;5.40;4.90;;;;;;;;;;5062140;28;20224;-62
2021/10/09 03:21:08;;;;;;;5.00;4.60;;;;;;;;;;5051968;28;20204;-64
2021/10/09 03:23:39;;;;;;;5.37;4.87;;;;;;;;;;5069333;28;20217;-63
2021/10/09 03:26:07;;;;;;;5.40;4.90;;;;;;;;;;5062750;28;20198;-63
2021/10/09 03:28:41;;;;;;;5.73;5.23;;;;;;;;;;5063620;28;20201;-63
2021/10/09 03:31:13;;;;;;;5.23;4.83;;;;;;;;;;5048027;28;20211;-63
2021/10/09 03:33:43;;;;;;;5.07;4.67;;;;;;;;;;5048824;28;20292;-63
2021/10/09 03:36:17;;;;;;;5.23;4.73;;;;;;;;;;5056470;28;20209;-63
2021/10/09 03:38:45;;;;;;;5.43;5.03;;;;;;;;;;5066326;28;20204;-63
2021/10/09 03:41:20;;;;;;;5.20;4.80;;;;;;;;;;5066726;28;20205;-63
2021/10/09 03:43:53;;;;;;;5.20;4.70;;;;;;;;;;5066526;28;20229;-64
2021/10/09 03:46:28;;;;;;;6.57;5.97;;;;;;;;;;5065937;28;20217;-64
2021/10/09 03:49:21;;;;;;;5.17;4.67;;;;;;;;;;5068934;28;20258;-64
2021/10/09 03:54:40;;;;;;;5.33;4.87;;;;;;;;;;5079097;28;20209;-63
2021/10/09 03:57:13;;;;;;;5.77;5.07;;;;;;;;;;5064966;28;20205;-64
2021/10/09 03:59:44;;;;;;;5.50;5.00;;;;;;;;;;5067279;28;20190;-64
2021/10/09 04:02:16;;;;;;;6.00;5.50;;;;;;;;;;5070946;28;20216;-63
2021/10/09 04:04:48;;;;;;;5.43;5.03;;;;;;;;;;5076928;28;20217;-63
2021/10/09 04:07:19;;;;;;;5.57;5.10;;;;;;;;;;5062701;28;20213;-63
2021/10/09 04:09:48;;;;;;;5.70;5.20;;;;;;;;;;5049507;28;20209;-63
2021/10/09 04:12:19;;;;;;;5.83;5.33;;;;;;;;;;5072735;28;20227;-64
2021/10/09 04:14:49;;;;;;;5.03;4.63;;;;;;;;;;5071640;28;20227;-64
2021/10/09 04:17:20;;;;;;;6.27;5.73;;;;;;;;;;5060487;28;20201;-63
2021/10/09 04:19:51;;;;;;;6.10;5.57;;;;;;;;;;5064113;28;20225;-63
2021/10/09 04:22:24;;;;;;;5.70;5.20;;;;;;;;;;5070518;28;20587;-63
2021/10/09 04:24:56;;;;;;;5.73;5.23;;;;;;;;;;5067277;28;20197;-63
2021/10/09 04:27:25;;;;;;;5.60;5.10;;;;;;;;;;5067280;28;20190;-63
2021/10/09 04:29:57;;;;;;;5.50;5.00;;;;;;;;;;5070267;28;20220;-63
2021/10/09 04:32:25;;;;;;;6.10;5.60;;;;;;;;;;5064958;28;20647;-63
2021/10/09 04:34:54;;;;;;;5.37;4.97;;;;;;;;;;5065670;28;20265;-63
2021/10/09 04:37:25;;;;;;;6.20;5.70;;;;;;;;;;5052398;28;20202;-63
2021/10/09 04:39:54;;;;;;;6.03;5.53;;;;;;;;;;5060389;28;20282;-63
2021/10/09 04:42:29;;;;;;;5.83;5.33;;;;;;;;;;5067153;28;20205;-63
2021/10/09 04:45:16;;;;;;;5.90;5.40;;;;;;;;;;5068731;28;20200;-63
2021/10/09 04:47:50;;;;;;;6.43;5.93;;;;;;;;;;5070116;28;20256;-63
2021/10/09 04:50:22;;;;;;;6.50;5.90;;;;;;;;;;5065870;28;20665;-63
2021/10/09 04:52:54;;;;;;;6.50;6.00;;;;;;;;;;5063776;28;20202;-63
2021/10/09 04:55:24;;;;;;;6.53;5.93;;;;;;;;;;5049352;28;20306;-63
2021/10/09 04:57:54;;;;;;;6.50;5.90;;;;;;;;;;5079218;28;20302;-63
2021/10/09 05:00:25;;;;;;;6.47;5.97;;;;;;;;;;5085310;28;20539;-63
2021/10/09 05:02:54;;;;;;;6.57;5.97;;;;;;;;;;5071143;28;20205;-63
2021/10/09 05:05:28;;;;;;;6.93;6.33;;;;;;;;;;5071875;28;20198;-63
2021/10/09 05:07:55;;;;;;;6.90;6.30;;;;;;;;;;5052114;28;20862;-63
2021/10/09 05:10:28;;;;;;;6.50;5.90;;;;;;;;;;5072401;28;20607;-63
2021/10/09 05:13:04;;;;;;;7.07;6.47;;;;;;;;;;5083808;28;20189;-63
2021/10/09 05:15:45;;;;;;;6.87;6.27;;;;;;;;;;5068768;28;20237;-63
2021/10/09 05:18:15;;;;;;;7.83;6.47;;;;;;;;;;5068621;28;20205;-63
2021/10/09 05:20:43;;;;;;;6.50;5.90;;;;;;;;;;5047452;28;20224;-63
2021/10/09 05:23:12;;;;;;;7.03;6.40;;;;;;;;;;5071489;28;20217;-63
2021/10/09 05:25:44;;;;;;;6.47;5.77;;;;;;;;;;5072166;28;20241;-64
2021/10/09 05:28:21;;;;;;;6.60;6.10;;;;;;;;;;5076893;28;20201;-64
2021/10/09 05:31:00;;;;;;;7.27;6.57;;;;;;;;;;5068615;28;20713;-64
2021/10/09 05:36:03;;;;;;;7.60;7.00;;;;;;;;;;5066481;28;20226;-63
2021/10/09 05:38:32;;;;;;;6.60;6.00;;;;;;;;;;5060959;28;20616;-64
2021/10/09 05:41:05;;;;;;;6.97;6.37;;;;;;;;;;5078767;28;20236;-63
2021/10/09 05:43:35;;;;;;;7.23;6.53;;;;;;;;;;5067453;28;20221;-64
2021/10/09 05:46:07;;;;;;;7.20;6.50;;;;;;;;;;5051329;28;20202;-62
2021/10/09 05:48:38;;;;;;;7.10;6.50;;;;;;;;;;5076257;28;20210;-62
2021/10/09 07:01:24;;;;;;;8.67;7.87;;;;;;;;;;5065552;28;20195;-61
2021/10/09 07:03:56;;;;;;;8.43;7.60;;;;;;;;;;5073086;28;20665;-62
2021/10/09 07:06:28;;;;;;;10.20;8.53;;;;;;;;;;5058582;28;20186;-62
2021/10/09 07:08:58;;;;;;;9.90;8.10;;;;;;;;;;5057893;28;20202;-62
2021/10/09 07:11:30;;;;;;;18.90;8.40;;;;;;;;;;5053062;28;20596;-63
2021/10/09 07:14:03;;;;;;;15.67;9.30;;;;;;;;;;5068068;28;20292;-62
2021/10/09 07:16:36;;;;;;;15.13;9.07;;;;;;;;;;5047901;28;20557;-64
2021/10/09 07:19:12;;;;;;;15.33;9.90;;;;;;;;;;5065776;28;20213;-64
2021/10/09 07:21:42;;;;;;;12.63;9.87;;;;;;;;;;5063137;28;20209;-63
2021/10/09 07:24:35;;;;;;;14.10;10.60;;;;;;;;;;5043349;28;20285;-64
2021/10/09 07:27:04;;;;;;;12.13;9.30;;;;;;;;;;5055380;28;20725;-63
2021/10/09 07:29:34;;;;;;;12.53;9.87;;;;;;;;;;5065408;28;20190;-62
2021/10/09 07:32:09;;;;;;;15.73;9.87;;;;;;;;;;5063572;28;20589;-64
2021/10/09 07:34:40;;;;;;;14.47;10.17;;;;;;;;;;5064416;28;20205;-63
2021/10/09 07:37:10;;;;;;;14.57;9.73;;;;;;;;;;5059708;28;20355;-63
2021/10/09 07:39:38;;;;;;;12.20;10.67;;;;;;;;;;5047488;28;20206;-63
2021/10/09 07:42:09;;;;;;;11.73;9.80;;;;;;;;;;5047575;28;20223;-63
2021/10/09 07:44:39;;;;;;;14.40;11.23;;;;;;;;;;5039108;28;20667;-62
2021/10/09 07:47:13;;;;;;;12.43;10.80;;;;;;;;;;5047693;28;20247;-63
2021/10/09 07:49:42;;;;;;;13.03;11.40;;;;;;;;;;5056422;28;20268;-63
2021/10/09 07:52:14;;;;;;;13.73;11.00;;;;;;;;;;5031287;28;20230;-62
2021/10/09 07:54:43;;;;;;;14.53;11.00;;;;;;;;;;5060429;28;20197;-62
2021/10/09 07:57:11;;;;;;;13.03;11.73;;;;;;;;;;5062450;28;20528;-62
2021/10/09 07:59:41;;;;;;;12.70;11.37;;;;;;;;;;5061963;28;20205;-62
2021/10/09 08:02:18;;;;;;;12.43;11.13;;;;;;;;;;5064012;28;20212;-63
2021/10/09 08:04:51;;;;;;;12.87;11.57;;;;;;;;;;5055400;28;20648;-63
2021/10/09 08:07:34;;;;;;;12.90;11.53;;;;;;;;;;5062820;28;20209;-62
2021/10/09 08:10:06;;;;;;;15.07;12.07;;;;;;;;;;5076342;28;20619;-62
2021/10/09 08:12:34;;;;;;;14.70;12.47;;;;;;;;;;5047610;28;20948;-61
2021/10/09 08:15:06;;;;;;;14.30;12.73;;;;;;;;;;5061895;28;20210;-61
2021/10/09 08:17:54;;;;;;;16.97;12.50;;;;;;;;;;5057857;28;20522;-61
2021/10/09 08:20:25;;;;;;;14.30;11.67;;;;;;;;;;5043787;28;20236;-62
2021/10/09 08:23:20;;;;;;;14.10;12.60;;;;;;;;;;5040700;28;20212;-62
2021/10/09 08:39:49;;;;;;;15.17;12.77;;;;;;;;;;5078053;28;20205;-61
2021/10/09 08:42:19;;;;;;;18.13;13.67;;;;;;;;;;5063000;28;20201;-63
2021/10/09 08:44:47;;;;;;;20.17;14.17;;;;;;;;;;5063017;28;20678;-64
2021/10/09 08:47:21;;;;;;;16.33;14.20;;;;;;;;;;5062747;28;20193;-64
2021/10/09 08:49:52;;;;;;;18.83;15.00;;;;;;;;;;5070204;28;20197;-64
2021/10/09 08:52:24;;;;;;;19.53;15.73;;;;;;;;;;5055543;28;20190;-65
2021/10/09 08:54:55;;;;;;;25.47;16.60;;;;;;;;;;5051393;28;21377;-66
2021/10/09 08:57:27;;;;;;;19.73;15.53;;;;;;;;;;5066312;28;20237;-63
2021/10/09 09:00:09;;;;;;;19.50;15.87;;;;;;;;;;5047703;28;20267;-64
2021/10/09 09:02:45;;;;;;;21.57;15.20;;;;;;;;;;5063749;28;20256;-64
2021/10/09 09:26:12;;;;;;;15.87;14.17;;;;;;;;;;5053019;28;20209;-63
2021/10/09 09:31:51;;;;;;;15.93;14.23;;;;;;;;;;5055890;28;20225;-62
2021/10/09 09:38:54;;;;;;;16.63;13.87;;;;;;;;;;5076926;28;20241;-63
2021/10/09 09:40:24;;;;;;;18.00;14.33;;;;;;;;;;5058913;28;20218;-63
2021/10/09 09:42:55;;;;;;;21.17;14.93;;;;;;;;;;5053251;28;20739;-63
2021/10/09 09:45:29;;;;;;;15.87;14.03;;;;;;;;;;5071973;28;20214;-63
2021/10/09 09:48:04;;;;;;;17.17;14.40;;;;;;;;;;5045028;28;20230;-63
2021/10/09 09:50:38;;;;;;;19.17;14.67;;;;;;;;;;5058369;28;20267;-62
2021/10/09 09:53:16;;;;;;;16.60;14.70;;;;;;;;;;5055188;28;20216;-62
2021/10/09 09:55:52;;;;;;;18.27;14.50;;;;;;;;;;5063193;28;20206;-63
2021/10/09 09:58:23;;;;;;;17.87;14.93;;;;;;;;;;5065483;28;20245;-63
2021/10/09 10:00:59;;;;;;;17.47;14.83;;;;;;;;;;5047854;28;20187;-63
2021/10/09 10:03:31;;;;;;;20.13;14.87;;;;;;;;;;5066258;28;20225;-63
2021/10/09 10:06:03;;;;;;;17.03;14.30;;;;;;;;;;5032645;28;20214;-62
2021/10/09 10:08:34;;;;;;;17.93;14.83;;;;;;;;;;5066309;28;20217;-62
2021/10/09 10:11:07;;;;;;;19.33;14.93;;;;;;;;;;5061835;28;20217;-63
2021/10/09 10:13:39;;;;;;;16.87;15.10;;;;;;;;;;5058664;28;20209;-63
2021/10/09 10:16:10;;;;;;;17.90;15.43;;;;;;;;;;5063900;28;20251;-63
2021/10/09 10:18:50;;;;;;;17.73;15.47;;;;;;;;;;5068337;28;20573;-63
2021/10/09 10:21:41;;;;;;;18.13;16.07;;;;;;;;;;5038401;28;20676;-63
2021/10/09 10:24:38;;;;;;;17.93;15.80;;;;;;;;;;5070033;28;20230;-63
2021/10/09 10:27:27;;;;;;;16.17;14.57;;;;;;;;;;5047507;28;20750;-62
2021/10/09 10:30:19;;;;;;;17.10;15.30;;;;;;;;;;5064833;28;20220;-62
2021/10/09 10:32:55;;;;;;;21.07;15.37;;;;;;;;;;5064433;28;20293;-63
2021/10/09 10:35:34;;;;;;;16.77;14.93;;;;;;;;;;5057023;28;20239;-62
2021/10/09 10:38:11;;;;;;;17.80;15.10;;;;;;;;;;5065083;28;20786;-62
2021/10/09 10:41:01;;;;;;;18.13;16.30;;;;;;;;;;5050333;28;20647;-62
2021/10/09 10:43:52;;;;;;;18.33;16.43;;;;;;;;;;5058328;28;20245;-62
2021/10/09 10:46:41;;;;;;;18.77;16.33;;;;;;;;;;5070987;28;20632;-63
2021/10/09 10:49:21;;;;;;;19.00;16.93;;;;;;;;;;5061197;28;20469;-63
2021/10/09 10:54:37;;;;;;;16.57;14.87;;;;;;;;;;5057341;28;20194;-63
2021/10/09 10:57:11;;;;;;;18.93;15.60;;;;;;;;;;5067708;28;20205;-63
2021/10/09 10:59:49;;;;;;;18.40;15.60;;;;;;;;;;5057517;28;20222;-63
2021/10/09 11:02:20;;;;;;;18.43;15.60;;;;;;;;;;5061802;28;20223;-64
2021/10/09 11:04:54;;;;;;;15.60;14.00;;;;;;;;;;5052777;28;20226;-64
2021/10/09 11:07:30;;;;;;;16.40;14.70;;;;;;;;;;5059234;28;20550;-63
2021/10/09 11:10:32;;;;;;;17.17;15.37;;;;;;;;;;5054223;28;20204;-63
2021/10/09 11:13:03;;;;;;;17.07;15.27;;;;;;;;;;5025175;28;20216;-64
2021/10/09 11:15:47;;;;;;;19.00;14.63;;;;;;;;;;5063755;28;20209;-64
2021/10/09 11:18:18;;;;;;;16.63;15.00;;;;;;;;;;5069795;28;20209;-64
2021/10/09 11:20:51;;;;;;;18.93;15.33;;;;;;;;;;5062778;28;20221;-63
2021/10/09 11:23:23;;;;;;;16.00;14.23;;;;;;;;;;5068998;28;20205;-63
2021/10/09 11:25:54;;;;;;;18.50;14.57;;;;;;;;;;5068837;28;20194;-64
2021/10/09 11:28:40;;;;;;;15.93;14.30;;;;;;;;;;5051302;28;20294;-63
2021/10/09 11:31:20;;;;;;;17.03;15.33;;;;;;;;;;5067056;28;20205;-64
2021/10/09 11:33:56;;;;;;;16.00;14.40;;;;;;;;;;5036441;28;20208;-65
2021/10/09 11:36:44;;;;;;;16.53;14.73;;;;;;;;;;5054729;28;20193;-63
2021/10/09 11:39:24;;;;;;;15.37;13.87;;;;;;;;;;5077542;28;20205;-63
2021/10/09 11:42:13;;;;;;;16.20;14.50;;;;;;;;;;5068431;28;20208;-63
2021/10/09 11:44:51;;;;;;;16.67;14.83;;;;;;;;;;5062400;28;20237;-63
2021/10/09 11:53:48;;;;;;;15.10;13.50;;;;;;;;;;5044277;28;20225;-64
2021/10/09 11:56:19;;;;;;;15.63;13.73;;;;;;;;;;5065928;28;20236;-65
2021/10/09 11:58:59;;;;;;;18.00;14.40;;;;;;;;;;5066872;28;20232;-63
2021/10/09 12:01:37;;;;;;;15.77;13.83;;;;;;;;;;5080719;28;20547;-63
2021/10/09 12:04:25;;;;;;;15.03;13.50;;;;;;;;;;5046282;28;20222;-63
2021/10/09 12:07:16;;;;;;;15.47;13.87;;;;;;;;;;5049663;28;20243;-63
2021/10/09 12:09:58;;;;;;;15.33;13.73;;;;;;;;;;5076225;28;20214;-63
2021/10/09 12:12:34;;;;;;;17.17;14.50;;;;;;;;;;5047897;28;20291;-63
2021/10/09 12:15:24;;;;;;;16.23;13.57;;;;;;;;;;5060009;28;20326;-62
2021/10/09 12:18:06;;;;;;;15.30;13.70;;;;;;;;;;5046155;28;20205;-67
2021/10/09 12:20:39;;;;;;;15.73;13.40;;;;;;;;;;5052347;28;20198;-63
2021/10/09 12:23:10;;;;;;;16.30;14.63;;;;;;;;;;5059046;28;20564;-63
2021/10/09 12:25:41;;;;;;;15.73;14.00;;;;;;;;;;5052369;28;20320;-63
2021/10/09 12:28:14;;;;;;;16.80;13.97;;;;;;;;;;5066186;28;20201;-63
2021/10/09 12:30:51;;;;;;;17.50;13.33;;;;;;;;;;5061497;28;20206;-63
2021/10/09 12:33:38;;;;;;;15.50;13.97;;;;;;;;;;5077766;28;20214;-62
2021/10/09 12:36:49;;;;;;;14.63;12.50;;;;;;;;;;5035607;28;20206;-64
2021/10/09 12:39:26;;;;;;;13.97;12.53;;;;;;;;;;5068415;28;20647;-66
2021/10/09 12:41:58;;;;;;;14.07;12.67;;;;;;;;;;5048973;28;20194;-65
2021/10/09 12:44:28;;;;;;;14.23;12.73;;;;;;;;;;5054171;28;20230;-66
2021/10/09 12:47:01;;;;;;;14.97;13.53;;;;;;;;;;5065582;28;20205;-65
2021/10/09 12:49:34;;;;;;;17.33;13.93;;;;;;;;;;5048914;28;20194;-65
2021/10/09 12:52:07;;;;;;;15.63;14.03;;;;;;;;;;5065203;28;20224;-65
2021/10/09 12:54:39;;;;;;;17.00;14.00;;;;;;;;;;5050695;28;20428;-65
2021/10/09 12:57:07;;;;;;;16.30;14.70;;;;;;;;;;5061372;28;20651;-65
2021/10/09 12:59:43;;;;;;;15.50;13.93;;;;;;;;;;5088790;28;20193;-65
2021/10/09 13:02:15;;;;;;;17.30;14.23;;;;;;;;;;5060767;28;20212;-65
2021/10/09 13:04:48;;;;;;;14.77;13.27;;;;;;;;;;5070927;28;20234;-65
2021/10/09 13:07:20;;;;;;;14.13;12.60;;;;;;;;;;5075119;28;20580;-65
2021/10/09 13:09:53;;;;;;;15.77;13.10;;;;;;;;;;5075607;28;20200;-64
2021/10/09 13:12:33;;;;;;;13.23;11.97;;;;;;;;;;5086912;28;20204;-64
2021/10/09 13:15:02;;;;;;;14.90;11.67;;;;;;;;;;5085991;28;20200;-64
2021/10/09 13:17:34;;;;;;;13.87;10.90;;;;;;;;;;5084010;28;20211;-65
2021/10/09 13:20:10;;;;;;;14.00;11.50;;;;;;;;;;5084402;28;20270;-65
2021/10/09 13:22:41;;;;;;;14.33;12.33;;;;;;;;;;5084826;28;20205;-65
2021/10/09 13:25:30;;;;;;;12.93;11.47;;;;;;;;;;5088350;28;20232;-64
2021/10/09 13:27:59;;;;;;;13.07;11.77;;;;;;;;;;5104666;27;20234;-65
2021/10/09 13:30:32;;;;;;;14.63;12.63;;;;;;;;;;5065511;28;20212;-64
2021/10/09 13:33:03;;;;;;;13.67;12.27;;;;;;;;;;5098993;27;20238;-65
2021/10/09 13:35:33;;;;;;;14.63;12.13;;;;;;;;;;5085286;28;20189;-65
2021/10/09 13:38:04;;;;;;;13.93;11.47;;;;;;;;;;5097219;27;20225;-65
2021/10/09 13:40:36;;;;;;;12.63;11.33;;;;;;;;;;5079655;28;20222;-66
2021/10/09 13:43:13;;;;;;;13.03;11.40;;;;;;;;;;5078138;28;20309;-66
2021/10/09 13:45:55;;;;;;;13.43;11.80;;;;;;;;;;5098497;28;20252;-66
2021/10/09 13:48:27;;;;;;;14.17;12.20;;;;;;;;;;5076892;28;20190;-66
2021/10/09 13:50:57;;;;;;;14.60;12.13;;;;;;;;;;5099101;28;20227;-66
2021/10/09 13:53:28;;;;;;;13.30;11.80;;;;;;;;;;5086299;28;20223;-66
2021/10/09 13:56:01;;;;;;;13.00;11.63;;;;;;;;;;5088338;28;20221;-64
2021/10/09 13:58:33;;;;;;;11.90;10.63;;;;;;;;;;5073058;28;20229;-64
2021/10/09 14:01:03;;;;;;;14.27;11.23;;;;;;;;;;5066784;28;20677;-65
2021/10/09 14:03:36;;;;;;;13.00;11.60;;;;;;;;;;5068619;28;20277;-65
2021/10/09 14:06:08;;;;;;;13.23;11.73;;;;;;;;;;5072019;28;20241;-65
2021/10/09 14:08:40;;;;;;;13.47;11.13;;;;;;;;;;5057268;28;20218;-64
2021/10/09 14:11:10;;;;;;;13.37;11.97;;;;;;;;;;5070582;28;20557;-65
2021/10/09 14:13:41;;;;;;;15.03;12.53;;;;;;;;;;5066436;28;20239;-65
2021/10/09 14:16:10;;;;;;;13.80;11.70;;;;;;;;;;5044394;28;20239;-66
2021/10/09 14:18:42;;;;;;;12.87;11.40;;;;;;;;;;5062878;28;20748;-66
2021/10/09 14:21:12;;;;;;;11.80;10.57;;;;;;;;;;5046967;28;20661;-66
2021/10/09 14:23:44;;;;;;;11.37;10.27;;;;;;;;;;5068505;28;20197;-66
2021/10/09 14:26:19;;;;;;;12.40;11.10;;;;;;;;;;5072021;28;20208;-65
2021/10/09 14:28:49;;;;;;;16.10;12.03;;;;;;;;;;5065398;28;20216;-65
2021/10/09 14:31:18;;;;;;;15.63;12.13;;;;;;;;;;5074537;28;20219;-65
2021/10/09 14:33:50;;;;;;;13.03;11.60;;;;;;;;;;5068754;28;20198;-64
2021/10/09 14:36:22;;;;;;;15.07;11.40;;;;;;;;;;5070621;28;20235;-66
2021/10/09 14:38:52;;;;;;;14.73;11.37;;;;;;;;;;5062527;28;20598;-65
2021/10/09 14:41:21;;;;;;;11.93;10.77;;;;;;;;;;5052950;28;20245;-65
2021/10/09 14:43:51;;;;;;;12.40;11.00;;;;;;;;;;5064326;28;20214;-64
2021/10/09 14:46:43;;;;;;;11.60;10.40;;;;;;;;;;5086974;28;20211;-63
2021/10/09 14:49:14;;;;;;;14.43;11.03;;;;;;;;;;5068694;28;20247;-64
2021/10/09 14:51:56;;;;;;;13.53;10.03;;;;;;;;;;5068068;28;20195;-64
2021/10/09 15:17:11;;;;;;;11.03;9.43;;;;;;;;;;5065046;28;20214;-65
2021/10/09 15:19:44;;;;;;;9.73;8.73;;;;;;;;;;5066299;28;20224;-65
2021/10/09 15:22:15;;;;;;;10.37;9.30;;;;;;;;;;5066756;28;20691;-65
2021/10/09 15:24:44;;;;;;;10.73;8.87;;;;;;;;;;5050000;28;20277;-65
2021/10/09 15:27:13;;;;;;;10.57;9.47;;;;;;;;;;5070259;28;20264;-65
2021/10/09 15:29:54;;;;;;;12.87;9.73;;;;;;;;;;5063788;28;20824;-65
2021/10/09 15:32:26;;;;;;;11.20;9.80;;;;;;;;;;5061011;28;20210;-65
2021/10/09 15:34:56;;;;;;;10.17;9.13;;;;;;;;;;5045240;28;20205;-65
2021/10/09 15:37:30;;;;;;;10.30;9.30;;;;;;;;;;5067994;28;20197;-64
2021/10/09 15:40:06;;;;;;;11.03;9.13;;;;;;;;;;5059827;28;20251;-64
2021/10/09 15:42:39;;;;;;;9.50;8.60;;;;;;;;;;5062191;28;20592;-63
2021/10/09 15:45:08;;;;;;;10.80;8.90;;;;;;;;;;5048510;28;20679;-63
2021/10/09 15:47:39;;;;;;;12.00;8.73;;;;;;;;;;5066107;28;20655;-63
2021/10/09 15:50:11;;;;;;;10.30;9.17;;;;;;;;;;5063096;28;20231;-65
2021/10/09 15:52:42;;;;;;;14.07;9.27;;;;;;;;;;5068225;28;20190;-65
2021/10/09 15:55:13;;;;;;;13.00;9.83;;;;;;;;;;5058589;28;20666;-65
2021/10/09 15:57:45;;;;;;;10.33;9.27;;;;;;;;;;5082728;28;20193;-65
2021/10/09 16:00:16;;;;;;;10.40;8.87;;;;;;;;;;5052010;28;20286;-64
2021/10/09 16:02:47;;;;;;;12.20;9.40;;;;;;;;;;5051403;28;20195;-65
2021/10/09 16:05:21;;;;;;;11.93;8.73;;;;;;;;;;5067703;28;20213;-64
2021/10/09 16:07:52;;;;;;;11.93;8.80;;;;;;;;;;5061542;28;20214;-64
2021/10/09 16:10:22;;;;;;;12.23;9.33;;;;;;;;;;5062318;28;20225;-64
2021/10/09 16:12:53;;;;;;;11.93;9.07;;;;;;;;;;5050227;28;20202;-64
2021/10/09 16:15:22;;;;;;;12.53;9.60;;;;;;;;;;5079981;28;20194;-64
2021/10/09 16:17:52;;;;;;;11.60;9.13;;;;;;;;;;5043613;28;20230;-64
2021/10/09 16:20:24;;;;;;;12.23;9.47;;;;;;;;;;5061239;28;20220;-64
2021/10/09 16:22:57;;;;;;;10.00;8.97;;;;;;;;;;5061504;28;20727;-64
2021/10/09 16:25:29;;;;;;;10.30;9.20;;;;;;;;;;5055661;28;20228;-65
2021/10/09 16:28:01;;;;;;;12.40;9.93;;;;;;;;;;5062534;28;20573;-66
2021/10/09 16:30:37;;;;;;;12.13;9.30;;;;;;;;;;5053199;28;20291;-65
2021/10/09 16:33:12;;;;;;;12.90;10.23;;;;;;;;;;5078318;28;20717;-65
2021/10/09 16:35:41;;;;;;;10.57;8.80;;;;;;;;;;5054240;28;20714;-65
2021/10/09 16:38:13;;;;;;;10.87;9.33;;;;;;;;;;5068342;28;20639;-65
2021/10/09 16:40:47;;;;;;;12.67;10.20;;;;;;;;;;5047956;28;20202;-64
2021/10/09 16:43:18;;;;;;;12.33;9.60;;;;;;;;;;5047986;28;20227;-64
2021/10/09 16:45:50;;;;;;;10.80;9.50;;;;;;;;;;5060966;28;20228;-64
2021/10/09 16:48:22;;;;;;;10.53;9.37;;;;;;;;;;5068618;28;20310;-64
2021/10/09 16:50:53;;;;;;;10.40;9.37;;;;;;;;;;5063689;28;20205;-64
2021/10/09 16:53:24;;;;;;;10.90;9.13;;;;;;;;;;5065996;28;20231;-64
2021/10/09 16:55:53;;;;;;;10.63;9.10;;;;;;;;;;5065863;28;20224;-65
2021/10/09 16:58:28;;;;;;;11.20;10.10;;;;;;;;;;5071183;28;20248;-65
2021/10/09 17:01:01;;;;;;;10.30;9.23;;;;;;;;;;5076642;28;20340;-64
2021/10/09 17:03:38;;;;;;;10.77;9.77;;;;;;;;;;5071074;28;20201;-63
2021/10/09 17:06:09;;;;;;;10.80;9.73;;;;;;;;;;5078445;28;20209;-63
2021/10/09 17:08:39;;;;;;;11.27;9.30;;;;;;;;;;5063296;28;20197;-64
2021/10/09 17:11:09;;;;;;;10.70;9.63;;;;;;;;;;5078631;28;20227;-63
2021/10/09 17:13:42;;;;;;;10.57;9.00;;;;;;;;;;5054148;28;20219;-63
2021/10/09 17:16:16;;;;;;;11.93;9.63;;;;;;;;;;5052819;28;20217;-63
2021/10/09 17:18:48;;;;;;;11.87;10.23;;;;;;;;;;5057356;28;20217;-63
2021/10/09 17:21:21;;;;;;;13.90;10.90;;;;;;;;;;5064350;28;20297;-64
2021/10/09 17:23:52;;;;;;;12.67;11.03;;;;;;;;;;5070009;28;20221;-65
2021/10/09 17:26:22;;;;;;;12.83;11.13;;;;;;;;;;5054283;28;20797;-65
2021/10/09 17:28:54;;;;;;;12.17;10.67;;;;;;;;;;5067608;28;20254;-64
2021/10/09 17:31:26;;;;;;;13.40;11.63;;;;;;;;;;5071456;28;20206;-64
2021/10/09 17:33:58;;;;;;;13.53;11.50;;;;;;;;;;5061827;28;20201;-64
2021/10/09 17:36:30;;;;;;;13.37;11.97;;;;;;;;;;5061085;28;20198;-64
2021/10/09 17:39:01;;;;;;;12.87;11.00;;;;;;;;;;5063967;28;20213;-63
2021/10/09 17:41:34;;;;;;;14.80;11.50;;;;;;;;;;5051182;28;20234;-64
2021/10/09 17:44:01;;;;;;;13.00;11.30;;;;;;;;;;5064145;28;20214;-64
2021/10/09 17:46:30;;;;;;;12.27;11.00;;;;;;;;;;5056193;28;20237;-64